sensor_id;sensor_type;location;lat;lon;timestamp;temperature;humidity
50690;DHT22;71367;48.298;11.238;2024-02-21T00:11:39;2.30;99.90
50690;DHT22;71367;48.298;11.238;2024-02-21T00:26:43;2.40;99.90
50690;DHT22;71367;48.298;11.238;2024-02-21T00:41:46;2.60;99.90
50690;DHT22;71367;48.298;11.238;2024-02-21T00:56:49;3.00;99.90
50690;DHT22;71367;48.298;11.238;2024-02-21T01:11:52;3.20;99.90
50690;DHT22;71367;48.298;11.238;2024-02-21T01:26:55;3.40;99.90
50690;DHT22;71367;48.298;11.238;2024-02-21T01:41:58;3.50;99.90
50690;DHT22;71367;48.298;11.238;2024-02-21T01:57:02;3.60;99.90
50690;DHT22;71367;48.298;11.238;2024-02-21T02:12:07;3.70;99.90
50690;DHT22;71367;48.298;11.238;2024-02-21T02:27:10;3.80;99.90
50690;DHT22;71367;48.298;11.238;2024-02-21T02:42:13;3.80;99.90
50690;DHT22;71367;48.298;11.238;2024-02-21T02:57:16;3.80;99.90
50690;DHT22;71367;48.298;11.238;2024-02-21T03:12:19;3.80;99.90
50690;DHT22;71367;48.298;11.238;2024-02-21T03:27:29;3.70;99.90
50690;DHT22;71367;48.298;11.238;2024-02-21T03:42:32;3.60;99.90
50690;DHT22;71367;48.298;11.238;2024-02-21T03:57:35;3.50;99.90
50690;DHT22;71367;48.298;11.238;2024-02-21T04:12:38;3.50;99.90
50690;DHT22;71367;48.298;11.238;2024-02-21T04:27:42;3.40;99.90
50690;DHT22;71367;48.298;11.238;2024-02-21T04:42:45;3.50;99.90
50690;DHT22;71367;48.298;11.238;2024-02-21T04:57:48;3.50;99.90
50690;DHT22;71367;48.298;11.238;2024-02-21T05:12:51;3.50;99.90
50690;DHT22;71367;48.298;11.238;2024-02-21T05:27:54;3.50;99.90
50690;DHT22;71367;48.298;11.238;2024-02-21T05:42:57;3.50;99.90
50690;DHT22;71367;48.298;11.238;2024-02-21T05:58:00;3.40;99.90
50690;DHT22;71367;48.298;11.238;2024-02-21T06:13:04;3.30;99.90
50690;DHT22;71367;48.298;11.238;2024-02-21T06:28:07;3.30;99.90
50690;DHT22;71367;48.298;11.238;2024-02-21T06:43:17;3.30;99.90
50690;DHT22;71367;48.298;11.238;2024-02-21T06:58:26;3.50;99.90
50690;DHT22;71367;48.298;11.238;2024-02-21T07:13:29;3.60;99.90
50690;DHT22;71367;48.298;11.238;2024-02-21T07:28:32;3.80;99.90
50690;DHT22;71367;48.298;11.238;2024-02-21T07:43:35;3.80;99.90
50690;DHT22;71367;48.298;11.238;2024-02-21T07:58:39;4.30;99.90
50690;DHT22;71367;48.298;11.238;2024-02-21T08:13:42;5.30;99.90
50690;DHT22;71367;48.298;11.238;2024-02-21T08:28:45;6.00;99.90
50690;DHT22;71367;48.298;11.238;2024-02-21T08:43:48;6.60;99.90
50690;DHT22;71367;48.298;11.238;2024-02-21T08:58:51;7.50;99.90
50690;DHT22;71367;48.298;11.238;2024-02-21T09:13:55;8.20;99.90
50690;DHT22;71367;48.298;11.238;2024-02-21T09:28:58;8.80;98.90
50690;DHT22;71367;48.298;11.238;2024-02-21T09:44:01;9.40;98.30
50690;DHT22;71367;48.298;11.238;2024-02-21T09:59:05;10.60;94.70
50690;DHT22;71367;48.298;11.238;2024-02-21T10:14:08;11.30;94.40
50690;DHT22;71367;48.298;11.238;2024-02-21T10:29:11;12.00;91.20
50690;DHT22;71367;48.298;11.238;2024-02-21T10:44:16;11.90;83.30
50690;DHT22;71367;48.298;11.238;2024-02-21T10:59:21;12.30;81.70
50690;DHT22;71367;48.298;11.238;2024-02-21T11:14:27;13.10;79.30
50690;DHT22;71367;48.298;11.238;2024-02-21T11:29:30;13.30;72.80
50690;DHT22;71367;48.298;11.238;2024-02-21T11:44:34;13.00;68.60
50690;DHT22;71367;48.298;11.238;2024-02-21T11:59:40;13.50;67.90
50690;DHT22;71367;48.298;11.238;2024-02-21T12:14:43;14.00;67.60
50690;DHT22;71367;48.298;11.238;2024-02-21T12:29:46;14.60;64.10
50690;DHT22;71367;48.298;11.238;2024-02-21T12:44:49;15.20;63.90
50690;DHT22;71367;48.298;11.238;2024-02-21T12:59:53;15.40;61.70
50690;DHT22;71367;48.298;11.238;2024-02-21T13:14:56;15.00;57.90
50690;DHT22;71367;48.298;11.238;2024-02-21T13:30:01;15.40;59.70
50690;DHT22;71367;48.298;11.238;2024-02-21T13:45:08;15.40;57.40
50690;DHT22;71367;48.298;11.238;2024-02-21T14:00:13;14.70;59.40
50690;DHT22;71367;48.298;11.238;2024-02-21T14:15:16;14.80;60.50
50690;DHT22;71367;48.298;11.238;2024-02-21T14:30:20;14.60;55.30
50690;DHT22;71367;48.298;11.238;2024-02-21T14:45:23;15.10;56.30
50690;DHT22;71367;48.298;11.238;2024-02-21T15:00:26;13.90;55.60
50690;DHT22;71367;48.298;11.238;2024-02-21T15:15:31;13.60;58.10
50690;DHT22;71367;48.298;11.238;2024-02-21T15:30:35;13.50;60.70
50690;DHT22;71367;48.298;11.238;2024-02-21T15:45:38;12.90;61.40
50690;DHT22;71367;48.298;11.238;2024-02-21T16:00:42;12.30;63.50
50690;DHT22;71367;48.298;11.238;2024-02-21T16:15:46;12.10;66.60
50690;DHT22;71367;48.298;11.238;2024-02-21T16:30:52;11.80;72.10
50690;DHT22;71367;48.298;11.238;2024-02-21T16:45:57;11.40;73.50
50690;DHT22;71367;48.298;11.238;2024-02-21T17:01:08;10.70;76.00
50690;DHT22;71367;48.298;11.238;2024-02-21T17:16:29;10.00;78.00
50690;DHT22;71367;48.298;11.238;2024-02-21T17:31:39;9.40;78.90
50690;DHT22;71367;48.298;11.238;2024-02-21T17:46:48;8.70;84.40
50690;DHT22;71367;48.298;11.238;2024-02-21T18:01:53;8.00;88.60
50690;DHT22;71367;48.298;11.238;2024-02-21T18:17:23;7.60;90.70
50690;DHT22;71367;48.298;11.238;2024-02-21T18:33:06;7.20;92.80
50690;DHT22;71367;48.298;11.238;2024-02-21T18:48:36;6.90;97.90
50690;DHT22;71367;48.298;11.238;2024-02-21T19:04:37;6.70;99.90
50690;DHT22;71367;48.298;11.238;2024-02-21T19:19:49;6.60;99.90
50690;DHT22;71367;48.298;11.238;2024-02-21T19:34:59;6.60;99.90
50690;DHT22;71367;48.298;11.238;2024-02-21T19:50:37;6.50;99.90
50690;DHT22;71367;48.298;11.238;2024-02-21T20:06:00;6.40;99.90
50690;DHT22;71367;48.298;11.238;2024-02-21T20:21:04;6.40;99.90
50690;DHT22;71367;48.298;11.238;2024-02-21T20:36:13;6.40;99.90
50690;DHT22;71367;48.298;11.238;2024-02-21T20:51:39;6.50;99.90
50690;DHT22;71367;48.298;11.238;2024-02-21T21:23:48;6.50;99.90
50690;DHT22;71367;48.298;11.238;2024-02-21T21:39:06;6.50;99.90
50690;DHT22;71367;48.298;11.238;2024-02-21T21:54:30;6.50;99.90
50690;DHT22;71367;48.298;11.238;2024-02-21T22:09:53;6.50;99.90
50690;DHT22;71367;48.298;11.238;2024-02-21T22:25:31;6.60;99.90
50690;DHT22;71367;48.298;11.238;2024-02-21T22:41:24;6.80;99.90
50690;DHT22;71367;48.298;11.238;2024-02-21T22:57:12;7.10;99.90
50690;DHT22;71367;48.298;11.238;2024-02-21T23:12:20;7.20;99.90
50690;DHT22;71367;48.298;11.238;2024-02-21T23:28:26;7.40;99.90
50690;DHT22;71367;48.298;11.238;2024-02-21T23:44:37;7.40;99.90
